sensor_id;sensor_type;location;lat;lon;timestamp;P1;durP1;ratioP1;P2;durP2;ratioP2
70052;SDS011;57398;52.032;4.376;2023-10-13T00:01:18;3.78;;;0.68;;
70052;SDS011;57398;52.032;4.376;2023-10-13T00:04:07;1.70;;;0.65;;
70052;SDS011;57398;52.032;4.376;2023-10-13T00:06:55;3.70;;;1.43;;
70052;SDS011;57398;52.032;4.376;2023-10-13T00:09:44;1.98;;;0.65;;
70052;SDS011;57398;52.032;4.376;2023-10-13T00:12:32;1.67;;;0.52;;
70052;SDS011;57398;52.032;4.376;2023-10-13T00:15:23;1.35;;;0.63;;
70052;SDS011;57398;52.032;4.376;2023-10-13T00:18:16;1.17;;;0.47;;
70052;SDS011;57398;52.032;4.376;2023-10-13T00:21:06;1.20;;;0.40;;
70052;SDS011;57398;52.032;4.376;2023-10-13T00:23:59;1.25;;;0.50;;
70052;SDS011;57398;52.032;4.376;2023-10-13T00:26:52;1.65;;;0.50;;
70052;SDS011;57398;52.032;4.376;2023-10-13T00:29:40;1.77;;;0.88;;
70052;SDS011;57398;52.032;4.376;2023-10-13T00:32:30;1.13;;;0.40;;
70052;SDS011;57398;52.032;4.376;2023-10-13T00:35:26;1.93;;;0.50;;
70052;SDS011;57398;52.032;4.376;2023-10-13T00:38:15;1.83;;;0.80;;
70052;SDS011;57398;52.032;4.376;2023-10-13T00:41:05;2.95;;;0.90;;
70052;SDS011;57398;52.032;4.376;2023-10-13T00:44:00;3.88;;;1.40;;
70052;SDS011;57398;52.032;4.376;2023-10-13T00:46:51;2.38;;;1.13;;
70052;SDS011;57398;52.032;4.376;2023-10-13T00:49:43;1.63;;;0.70;;
70052;SDS011;57398;52.032;4.376;2023-10-13T00:52:36;2.42;;;0.90;;
70052;SDS011;57398;52.032;4.376;2023-10-13T00:55:25;1.48;;;0.60;;
70052;SDS011;57398;52.032;4.376;2023-10-13T00:58:16;1.00;;;0.47;;
70052;SDS011;57398;52.032;4.376;2023-10-13T01:01:08;1.85;;;0.80;;
70052;SDS011;57398;52.032;4.376;2023-10-13T01:04:05;1.87;;;0.60;;
70052;SDS011;57398;52.032;4.376;2023-10-13T01:06:55;3.20;;;0.93;;
70052;SDS011;57398;52.032;4.376;2023-10-13T01:09:44;5.38;;;1.30;;
70052;SDS011;57398;52.032;4.376;2023-10-13T01:12:33;2.00;;;0.95;;
70052;SDS011;57398;52.032;4.376;2023-10-13T01:15:20;4.03;;;1.33;;
70052;SDS011;57398;52.032;4.376;2023-10-13T01:18:09;1.80;;;0.90;;
70052;SDS011;57398;52.032;4.376;2023-10-13T01:20:58;1.70;;;0.70;;
70052;SDS011;57398;52.032;4.376;2023-10-13T01:23:48;3.70;;;1.15;;
70052;SDS011;57398;52.032;4.376;2023-10-13T01:26:37;1.90;;;0.68;;
70052;SDS011;57398;52.032;4.376;2023-10-13T01:29:27;1.33;;;0.55;;
70052;SDS011;57398;52.032;4.376;2023-10-13T01:32:16;2.83;;;1.20;;
70052;SDS011;57398;52.032;4.376;2023-10-13T01:35:06;5.40;;;0.77;;
70052;SDS011;57398;52.032;4.376;2023-10-13T01:37:53;1.23;;;0.30;;
70052;SDS011;57398;52.032;4.376;2023-10-13T01:40:43;1.33;;;0.65;;
70052;SDS011;57398;52.032;4.376;2023-10-13T01:43:30;1.85;;;1.23;;
70052;SDS011;57398;52.032;4.376;2023-10-13T01:46:18;2.13;;;0.80;;
70052;SDS011;57398;52.032;4.376;2023-10-13T01:49:08;1.73;;;0.50;;
70052;SDS011;57398;52.032;4.376;2023-10-13T01:51:58;2.78;;;0.60;;
70052;SDS011;57398;52.032;4.376;2023-10-13T01:54:49;1.77;;;0.65;;
70052;SDS011;57398;52.032;4.376;2023-10-13T01:57:39;1.35;;;0.50;;
70052;SDS011;57398;52.032;4.376;2023-10-13T02:00:28;2.03;;;0.70;;
70052;SDS011;57398;52.032;4.376;2023-10-13T02:03:18;2.22;;;0.77;;
70052;SDS011;57398;52.032;4.376;2023-10-13T02:06:05;2.35;;;1.13;;
70052;SDS011;57398;52.032;4.376;2023-10-13T02:08:53;1.20;;;0.52;;
70052;SDS011;57398;52.032;4.376;2023-10-13T02:11:45;2.55;;;0.68;;
70052;SDS011;57398;52.032;4.376;2023-10-13T02:14:34;3.10;;;1.00;;
70052;SDS011;57398;52.032;4.376;2023-10-13T02:17:23;1.85;;;0.60;;
70052;SDS011;57398;52.032;4.376;2023-10-13T02:20:13;2.30;;;1.20;;
70052;SDS011;57398;52.032;4.376;2023-10-13T02:23:01;1.52;;;0.52;;
70052;SDS011;57398;52.032;4.376;2023-10-13T02:25:59;1.90;;;0.70;;
70052;SDS011;57398;52.032;4.376;2023-10-13T02:28:50;2.23;;;0.97;;
70052;SDS011;57398;52.032;4.376;2023-10-13T02:31:41;1.75;;;0.88;;
70052;SDS011;57398;52.032;4.376;2023-10-13T02:34:29;1.52;;;0.90;;
70052;SDS011;57398;52.032;4.376;2023-10-13T02:37:18;2.15;;;0.90;;
70052;SDS011;57398;52.032;4.376;2023-10-13T02:40:07;1.23;;;0.57;;
70052;SDS011;57398;52.032;4.376;2023-10-13T02:42:55;1.30;;;0.47;;
70052;SDS011;57398;52.032;4.376;2023-10-13T02:45:51;1.77;;;0.60;;
70052;SDS011;57398;52.032;4.376;2023-10-13T02:48:45;3.08;;;0.50;;
70052;SDS011;57398;52.032;4.376;2023-10-13T02:51:33;1.63;;;0.70;;
70052;SDS011;57398;52.032;4.376;2023-10-13T02:54:22;4.13;;;1.50;;
70052;SDS011;57398;52.032;4.376;2023-10-13T02:57:17;2.27;;;0.63;;
70052;SDS011;57398;52.032;4.376;2023-10-13T03:00:05;2.03;;;0.90;;
70052;SDS011;57398;52.032;4.376;2023-10-13T03:03:03;2.03;;;0.75;;
70052;SDS011;57398;52.032;4.376;2023-10-13T03:05:51;2.08;;;0.80;;
70052;SDS011;57398;52.032;4.376;2023-10-13T03:08:39;1.60;;;0.40;;
70052;SDS011;57398;52.032;4.376;2023-10-13T03:11:27;1.83;;;0.70;;
70052;SDS011;57398;52.032;4.376;2023-10-13T03:14:20;1.70;;;0.73;;
70052;SDS011;57398;52.032;4.376;2023-10-13T03:17:15;1.25;;;0.50;;
70052;SDS011;57398;52.032;4.376;2023-10-13T03:20:05;1.77;;;0.63;;
70052;SDS011;57398;52.032;4.376;2023-10-13T03:22:59;1.65;;;0.50;;
70052;SDS011;57398;52.032;4.376;2023-10-13T03:25:46;1.47;;;0.60;;
70052;SDS011;57398;52.032;4.376;2023-10-13T03:28:37;1.52;;;0.45;;
70052;SDS011;57398;52.032;4.376;2023-10-13T03:31:25;1.27;;;0.50;;
70052;SDS011;57398;52.032;4.376;2023-10-13T03:34:15;2.08;;;0.80;;
70052;SDS011;57398;52.032;4.376;2023-10-13T03:37:08;1.48;;;0.63;;
70052;SDS011;57398;52.032;4.376;2023-10-13T03:40:06;1.50;;;0.60;;
70052;SDS011;57398;52.032;4.376;2023-10-13T03:43:17;1.33;;;0.47;;
70052;SDS011;57398;52.032;4.376;2023-10-13T03:46:08;2.40;;;0.40;;
70052;SDS011;57398;52.032;4.376;2023-10-13T03:48:56;1.25;;;0.60;;
70052;SDS011;57398;52.032;4.376;2023-10-13T03:51:48;1.42;;;0.50;;
70052;SDS011;57398;52.032;4.376;2023-10-13T03:54:37;0.90;;;0.20;;
70052;SDS011;57398;52.032;4.376;2023-10-13T03:57:28;1.58;;;0.82;;
70052;SDS011;57398;52.032;4.376;2023-10-13T04:00:20;1.55;;;0.60;;
70052;SDS011;57398;52.032;4.376;2023-10-13T04:03:13;1.35;;;0.45;;
70052;SDS011;57398;52.032;4.376;2023-10-13T04:06:04;1.65;;;0.60;;
70052;SDS011;57398;52.032;4.376;2023-10-13T04:08:54;1.60;;;0.60;;
70052;SDS011;57398;52.032;4.376;2023-10-13T04:11:57;1.42;;;0.57;;
70052;SDS011;57398;52.032;4.376;2023-10-13T04:15:03;1.00;;;0.43;;
70052;SDS011;57398;52.032;4.376;2023-10-13T04:18:11;2.22;;;0.93;;
70052;SDS011;57398;52.032;4.376;2023-10-13T04:21:17;1.45;;;0.60;;
70052;SDS011;57398;52.032;4.376;2023-10-13T04:24:26;1.77;;;0.53;;
70052;SDS011;57398;52.032;4.376;2023-10-13T04:27:29;1.70;;;0.68;;
70052;SDS011;57398;52.032;4.376;2023-10-13T04:30:36;1.88;;;0.75;;
70052;SDS011;57398;52.032;4.376;2023-10-13T04:33:25;2.58;;;0.63;;
70052;SDS011;57398;52.032;4.376;2023-10-13T04:36:23;1.90;;;0.70;;
70052;SDS011;57398;52.032;4.376;2023-10-13T04:39:31;2.27;;;0.60;;
70052;SDS011;57398;52.032;4.376;2023-10-13T04:42:22;1.35;;;0.50;;
70052;SDS011;57398;52.032;4.376;2023-10-13T04:45:25;1.23;;;0.50;;
70052;SDS011;57398;52.032;4.376;2023-10-13T04:48:35;2.72;;;0.75;;
70052;SDS011;57398;52.032;4.376;2023-10-13T04:51:28;1.15;;;0.50;;
70052;SDS011;57398;52.032;4.376;2023-10-13T04:54:37;1.87;;;0.50;;
70052;SDS011;57398;52.032;4.376;2023-10-13T04:57:36;1.38;;;0.65;;
70052;SDS011;57398;52.032;4.376;2023-10-13T05:00:33;1.55;;;0.45;;
70052;SDS011;57398;52.032;4.376;2023-10-13T05:03:44;1.85;;;0.75;;
70052;SDS011;57398;52.032;4.376;2023-10-13T05:06:55;1.10;;;0.30;;
70052;SDS011;57398;52.032;4.376;2023-10-13T05:10:01;1.30;;;0.40;;
70052;SDS011;57398;52.032;4.376;2023-10-13T05:13:06;1.88;;;0.73;;
70052;SDS011;57398;52.032;4.376;2023-10-13T05:16:12;1.52;;;0.70;;
70052;SDS011;57398;52.032;4.376;2023-10-13T05:19:19;1.23;;;0.50;;
70052;SDS011;57398;52.032;4.376;2023-10-13T05:22:25;1.73;;;0.68;;
70052;SDS011;57398;52.032;4.376;2023-10-13T05:25:34;1.40;;;0.57;;
70052;SDS011;57398;52.032;4.376;2023-10-13T05:28:51;2.33;;;0.57;;
70052;SDS011;57398;52.032;4.376;2023-10-13T05:32:11;1.33;;;0.52;;
70052;SDS011;57398;52.032;4.376;2023-10-13T05:35:15;1.80;;;0.73;;
70052;SDS011;57398;52.032;4.376;2023-10-13T05:38:27;1.23;;;0.68;;
70052;SDS011;57398;52.032;4.376;2023-10-13T05:41:32;1.13;;;0.47;;
70052;SDS011;57398;52.032;4.376;2023-10-13T05:44:38;1.45;;;0.52;;
70052;SDS011;57398;52.032;4.376;2023-10-13T05:47:42;0.77;;;0.22;;
70052;SDS011;57398;52.032;4.376;2023-10-13T05:50:49;1.48;;;0.60;;
70052;SDS011;57398;52.032;4.376;2023-10-13T05:53:53;1.95;;;1.25;;
70052;SDS011;57398;52.032;4.376;2023-10-13T05:56:59;1.90;;;0.50;;
70052;SDS011;57398;52.032;4.376;2023-10-13T06:00:05;1.75;;;1.05;;
70052;SDS011;57398;52.032;4.376;2023-10-13T06:03:08;2.08;;;0.85;;
70052;SDS011;57398;52.032;4.376;2023-10-13T06:06:15;2.08;;;1.10;;
70052;SDS011;57398;52.032;4.376;2023-10-13T06:09:22;1.60;;;0.70;;
70052;SDS011;57398;52.032;4.376;2023-10-13T06:12:28;1.53;;;0.70;;
70052;SDS011;57398;52.032;4.376;2023-10-13T06:15:35;1.30;;;0.50;;
70052;SDS011;57398;52.032;4.376;2023-10-13T06:18:41;1.00;;;0.40;;
70052;SDS011;57398;52.032;4.376;2023-10-13T06:21:48;1.95;;;0.50;;
70052;SDS011;57398;52.032;4.376;2023-10-13T06:24:53;2.33;;;1.05;;
70052;SDS011;57398;52.032;4.376;2023-10-13T06:27:59;1.53;;;0.87;;
70052;SDS011;57398;52.032;4.376;2023-10-13T06:31:05;3.72;;;1.65;;
70052;SDS011;57398;52.032;4.376;2023-10-13T06:33:53;2.15;;;1.00;;
70052;SDS011;57398;52.032;4.376;2023-10-13T06:36:43;1.88;;;0.90;;
70052;SDS011;57398;52.032;4.376;2023-10-13T06:39:34;3.95;;;2.38;;
70052;SDS011;57398;52.032;4.376;2023-10-13T06:42:22;2.83;;;1.50;;
70052;SDS011;57398;52.032;4.376;2023-10-13T06:45:13;3.45;;;1.30;;
70052;SDS011;57398;52.032;4.376;2023-10-13T06:48:04;1.80;;;0.90;;
70052;SDS011;57398;52.032;4.376;2023-10-13T06:50:52;1.50;;;0.68;;
70052;SDS011;57398;52.032;4.376;2023-10-13T06:53:42;1.70;;;0.80;;
70052;SDS011;57398;52.032;4.376;2023-10-13T06:56:34;5.73;;;2.27;;
70052;SDS011;57398;52.032;4.376;2023-10-13T06:59:26;2.92;;;0.93;;
70052;SDS011;57398;52.032;4.376;2023-10-13T07:02:19;7.22;;;1.13;;
70052;SDS011;57398;52.032;4.376;2023-10-13T07:05:14;1.77;;;0.70;;
70052;SDS011;57398;52.032;4.376;2023-10-13T07:08:02;2.08;;;0.95;;
70052;SDS011;57398;52.032;4.376;2023-10-13T07:10:52;1.77;;;0.60;;
70052;SDS011;57398;52.032;4.376;2023-10-13T07:13:50;2.13;;;1.45;;
70052;SDS011;57398;52.032;4.376;2023-10-13T07:16:42;6.53;;;1.58;;
70052;SDS011;57398;52.032;4.376;2023-10-13T07:19:33;3.42;;;1.08;;
70052;SDS011;57398;52.032;4.376;2023-10-13T07:22:21;1.92;;;0.75;;
70052;SDS011;57398;52.032;4.376;2023-10-13T07:25:10;8.07;;;1.63;;
70052;SDS011;57398;52.032;4.376;2023-10-13T07:28:10;1.20;;;0.40;;
70052;SDS011;57398;52.032;4.376;2023-10-13T07:30:59;3.50;;;1.25;;
70052;SDS011;57398;52.032;4.376;2023-10-13T07:33:59;1.55;;;0.70;;
70052;SDS011;57398;52.032;4.376;2023-10-13T07:36:56;2.13;;;0.60;;
70052;SDS011;57398;52.032;4.376;2023-10-13T07:39:47;3.17;;;1.70;;
70052;SDS011;57398;52.032;4.376;2023-10-13T07:42:36;3.67;;;1.33;;
70052;SDS011;57398;52.032;4.376;2023-10-13T07:45:27;8.52;;;0.95;;
70052;SDS011;57398;52.032;4.376;2023-10-13T07:48:24;1.92;;;0.80;;
70052;SDS011;57398;52.032;4.376;2023-10-13T07:51:12;1.95;;;0.60;;
70052;SDS011;57398;52.032;4.376;2023-10-13T07:54:02;1.73;;;0.70;;
70052;SDS011;57398;52.032;4.376;2023-10-13T07:56:55;2.20;;;0.70;;
70052;SDS011;57398;52.032;4.376;2023-10-13T07:59:43;2.42;;;1.00;;
70052;SDS011;57398;52.032;4.376;2023-10-13T08:02:38;1.60;;;0.77;;
70052;SDS011;57398;52.032;4.376;2023-10-13T08:05:38;2.00;;;0.55;;
70052;SDS011;57398;52.032;4.376;2023-10-13T08:08:43;1.50;;;0.67;;
70052;SDS011;57398;52.032;4.376;2023-10-13T08:11:36;1.45;;;0.63;;
70052;SDS011;57398;52.032;4.376;2023-10-13T08:14:24;2.08;;;0.60;;
70052;SDS011;57398;52.032;4.376;2023-10-13T08:17:24;1.63;;;0.52;;
70052;SDS011;57398;52.032;4.376;2023-10-13T08:20:18;2.13;;;1.42;;
70052;SDS011;57398;52.032;4.376;2023-10-13T08:23:10;5.40;;;0.90;;
70052;SDS011;57398;52.032;4.376;2023-10-13T08:26:21;1.70;;;0.65;;
70052;SDS011;57398;52.032;4.376;2023-10-13T08:29:25;1.40;;;0.60;;
70052;SDS011;57398;52.032;4.376;2023-10-13T08:32:31;1.35;;;0.55;;
70052;SDS011;57398;52.032;4.376;2023-10-13T08:35:33;3.03;;;1.20;;
70052;SDS011;57398;52.032;4.376;2023-10-13T08:38:26;1.57;;;0.77;;
70052;SDS011;57398;52.032;4.376;2023-10-13T08:41:17;1.42;;;0.40;;
70052;SDS011;57398;52.032;4.376;2023-10-13T08:44:25;7.15;;;0.70;;
70052;SDS011;57398;52.032;4.376;2023-10-13T08:47:31;1.65;;;0.63;;
70052;SDS011;57398;52.032;4.376;2023-10-13T08:50:23;0.95;;;0.32;;
70052;SDS011;57398;52.032;4.376;2023-10-13T08:53:36;1.60;;;0.60;;
70052;SDS011;57398;52.032;4.376;2023-10-13T08:56:32;2.38;;;0.80;;
70052;SDS011;57398;52.032;4.376;2023-10-13T08:59:21;3.85;;;1.92;;
70052;SDS011;57398;52.032;4.376;2023-10-13T09:02:20;1.10;;;0.50;;
70052;SDS011;57398;52.032;4.376;2023-10-13T09:05:09;1.88;;;0.70;;
70052;SDS011;57398;52.032;4.376;2023-10-13T09:08:24;3.40;;;1.17;;
70052;SDS011;57398;52.032;4.376;2023-10-13T09:11:22;2.50;;;0.98;;
70052;SDS011;57398;52.032;4.376;2023-10-13T09:14:14;1.10;;;0.30;;
70052;SDS011;57398;52.032;4.376;2023-10-13T09:17:19;2.58;;;1.17;;
70052;SDS011;57398;52.032;4.376;2023-10-13T09:20:27;9.20;;;0.73;;
70052;SDS011;57398;52.032;4.376;2023-10-13T09:23:29;1.60;;;0.80;;
70052;SDS011;57398;52.032;4.376;2023-10-13T09:26:34;1.70;;;0.85;;
70052;SDS011;57398;52.032;4.376;2023-10-13T09:29:23;1.85;;;0.70;;
70052;SDS011;57398;52.032;4.376;2023-10-13T09:32:12;1.48;;;0.57;;
70052;SDS011;57398;52.032;4.376;2023-10-13T09:35:00;5.93;;;0.90;;
70052;SDS011;57398;52.032;4.376;2023-10-13T09:37:49;1.73;;;0.73;;
70052;SDS011;57398;52.032;4.376;2023-10-13T09:40:37;2.28;;;0.77;;
70052;SDS011;57398;52.032;4.376;2023-10-13T09:43:27;1.00;;;0.30;;
70052;SDS011;57398;52.032;4.376;2023-10-13T09:46:18;1.80;;;0.77;;
70052;SDS011;57398;52.032;4.376;2023-10-13T09:49:09;3.45;;;1.08;;
70052;SDS011;57398;52.032;4.376;2023-10-13T09:52:09;3.00;;;1.13;;
70052;SDS011;57398;52.032;4.376;2023-10-13T09:55:06;1.08;;;0.30;;
70052;SDS011;57398;52.032;4.376;2023-10-13T09:58:01;1.40;;;0.70;;
70052;SDS011;57398;52.032;4.376;2023-10-13T10:00:59;1.92;;;0.70;;
70052;SDS011;57398;52.032;4.376;2023-10-13T10:04:05;3.20;;;1.52;;
70052;SDS011;57398;52.032;4.376;2023-10-13T10:06:55;1.47;;;0.50;;
70052;SDS011;57398;52.032;4.376;2023-10-13T10:09:55;1.35;;;0.35;;
70052;SDS011;57398;52.032;4.376;2023-10-13T10:12:44;2.17;;;0.70;;
70052;SDS011;57398;52.032;4.376;2023-10-13T10:15:36;0.75;;;0.20;;
70052;SDS011;57398;52.032;4.376;2023-10-13T10:18:33;2.45;;;0.45;;
70052;SDS011;57398;52.032;4.376;2023-10-13T10:21:21;1.83;;;0.50;;
70052;SDS011;57398;52.032;4.376;2023-10-13T10:24:20;2.17;;;0.47;;
70052;SDS011;57398;52.032;4.376;2023-10-13T10:27:23;1.83;;;0.70;;
70052;SDS011;57398;52.032;4.376;2023-10-13T10:30:23;2.10;;;0.73;;
70052;SDS011;57398;52.032;4.376;2023-10-13T10:33:12;1.00;;;0.40;;
70052;SDS011;57398;52.032;4.376;2023-10-13T10:36:04;1.73;;;0.77;;
70052;SDS011;57398;52.032;4.376;2023-10-13T10:38:53;4.10;;;1.63;;
70052;SDS011;57398;52.032;4.376;2023-10-13T10:41:45;6.85;;;1.55;;
70052;SDS011;57398;52.032;4.376;2023-10-13T10:44:40;11.95;;;2.55;;
70052;SDS011;57398;52.032;4.376;2023-10-13T10:47:29;8.95;;;2.67;;
70052;SDS011;57398;52.032;4.376;2023-10-13T10:50:24;11.60;;;2.90;;
70052;SDS011;57398;52.032;4.376;2023-10-13T10:53:23;10.00;;;3.00;;
70052;SDS011;57398;52.032;4.376;2023-10-13T10:56:22;10.60;;;2.97;;
70052;SDS011;57398;52.032;4.376;2023-10-13T10:59:12;10.43;;;3.13;;
70052;SDS011;57398;52.032;4.376;2023-10-13T11:02:05;9.95;;;3.45;;
70052;SDS011;57398;52.032;4.376;2023-10-13T11:04:55;9.13;;;3.03;;
70052;SDS011;57398;52.032;4.376;2023-10-13T11:07:45;10.73;;;3.70;;
70052;SDS011;57398;52.032;4.376;2023-10-13T11:10:45;11.10;;;3.50;;
70052;SDS011;57398;52.032;4.376;2023-10-13T11:13:40;9.27;;;3.10;;
70052;SDS011;57398;52.032;4.376;2023-10-13T11:16:37;12.65;;;3.20;;
70052;SDS011;57398;52.032;4.376;2023-10-13T11:19:37;9.50;;;3.23;;
70052;SDS011;57398;52.032;4.376;2023-10-13T11:22:27;13.27;;;3.47;;
70052;SDS011;57398;52.032;4.376;2023-10-13T11:25:20;8.43;;;3.00;;
70052;SDS011;57398;52.032;4.376;2023-10-13T11:28:17;7.70;;;3.08;;
70052;SDS011;57398;52.032;4.376;2023-10-13T11:31:07;8.75;;;3.20;;
70052;SDS011;57398;52.032;4.376;2023-10-13T11:34:00;9.17;;;3.07;;
70052;SDS011;57398;52.032;4.376;2023-10-13T11:36:52;9.25;;;3.45;;
70052;SDS011;57398;52.032;4.376;2023-10-13T11:39:40;11.15;;;2.75;;
70052;SDS011;57398;52.032;4.376;2023-10-13T11:42:30;10.23;;;3.10;;
70052;SDS011;57398;52.032;4.376;2023-10-13T11:45:24;11.35;;;3.72;;
70052;SDS011;57398;52.032;4.376;2023-10-13T11:48:17;7.07;;;3.03;;
70052;SDS011;57398;52.032;4.376;2023-10-13T11:51:10;14.10;;;3.22;;
70052;SDS011;57398;52.032;4.376;2023-10-13T11:54:03;8.82;;;2.95;;
70052;SDS011;57398;52.032;4.376;2023-10-13T11:56:51;12.45;;;3.17;;
70052;SDS011;57398;52.032;4.376;2023-10-13T11:59:44;13.23;;;3.63;;
70052;SDS011;57398;52.032;4.376;2023-10-13T12:02:41;10.30;;;3.70;;
70052;SDS011;57398;52.032;4.376;2023-10-13T12:05:47;9.00;;;3.40;;
70052;SDS011;57398;52.032;4.376;2023-10-13T12:08:53;9.85;;;3.10;;
70052;SDS011;57398;52.032;4.376;2023-10-13T12:11:41;9.23;;;3.42;;
70052;SDS011;57398;52.032;4.376;2023-10-13T12:14:29;9.63;;;3.03;;
70052;SDS011;57398;52.032;4.376;2023-10-13T12:17:25;7.67;;;3.03;;
70052;SDS011;57398;52.032;4.376;2023-10-13T12:20:19;14.25;;;3.70;;
70052;SDS011;57398;52.032;4.376;2023-10-13T12:23:19;9.18;;;3.50;;
70052;SDS011;57398;52.032;4.376;2023-10-13T12:26:17;12.35;;;4.00;;
70052;SDS011;57398;52.032;4.376;2023-10-13T12:29:06;10.10;;;3.70;;
70052;SDS011;57398;52.032;4.376;2023-10-13T12:32:05;11.80;;;3.43;;
70052;SDS011;57398;52.032;4.376;2023-10-13T12:34:54;8.88;;;3.60;;
70052;SDS011;57398;52.032;4.376;2023-10-13T12:37:49;9.38;;;3.83;;
70052;SDS011;57398;52.032;4.376;2023-10-13T12:40:37;9.90;;;4.10;;
70052;SDS011;57398;52.032;4.376;2023-10-13T12:43:43;10.02;;;4.13;;
70052;SDS011;57398;52.032;4.376;2023-10-13T12:47:03;10.23;;;3.43;;
70052;SDS011;57398;52.032;4.376;2023-10-13T12:50:09;8.13;;;3.58;;
70052;SDS011;57398;52.032;4.376;2023-10-13T12:53:14;12.25;;;3.90;;
70052;SDS011;57398;52.032;4.376;2023-10-13T12:56:02;10.15;;;3.45;;
70052;SDS011;57398;52.032;4.376;2023-10-13T12:58:51;13.88;;;3.90;;
70052;SDS011;57398;52.032;4.376;2023-10-13T13:01:41;9.93;;;3.43;;
70052;SDS011;57398;52.032;4.376;2023-10-13T13:04:29;11.15;;;3.70;;
70052;SDS011;57398;52.032;4.376;2023-10-13T13:07:23;11.95;;;3.85;;
70052;SDS011;57398;52.032;4.376;2023-10-13T13:10:17;11.63;;;4.00;;
70052;SDS011;57398;52.032;4.376;2023-10-13T13:13:05;10.73;;;3.85;;
70052;SDS011;57398;52.032;4.376;2023-10-13T13:15:54;14.37;;;3.93;;
70052;SDS011;57398;52.032;4.376;2023-10-13T13:18:43;11.20;;;4.30;;
70052;SDS011;57398;52.032;4.376;2023-10-13T13:21:31;9.80;;;3.72;;
70052;SDS011;57398;52.032;4.376;2023-10-13T13:24:19;12.10;;;3.80;;
70052;SDS011;57398;52.032;4.376;2023-10-13T13:27:08;8.73;;;3.25;;
70052;SDS011;57398;52.032;4.376;2023-10-13T13:30:00;12.43;;;4.20;;
70052;SDS011;57398;52.032;4.376;2023-10-13T13:32:48;12.02;;;3.50;;
70052;SDS011;57398;52.032;4.376;2023-10-13T13:35:37;12.63;;;3.92;;
70052;SDS011;57398;52.032;4.376;2023-10-13T13:38:25;8.88;;;3.47;;
70052;SDS011;57398;52.032;4.376;2023-10-13T13:41:18;12.55;;;3.67;;
70052;SDS011;57398;52.032;4.376;2023-10-13T13:44:07;12.03;;;3.50;;
70052;SDS011;57398;52.032;4.376;2023-10-13T13:47:01;12.90;;;3.53;;
70052;SDS011;57398;52.032;4.376;2023-10-13T13:49:52;11.38;;;3.70;;
70052;SDS011;57398;52.032;4.376;2023-10-13T13:52:41;13.52;;;3.42;;
70052;SDS011;57398;52.032;4.376;2023-10-13T13:55:33;9.02;;;3.05;;
70052;SDS011;57398;52.032;4.376;2023-10-13T13:58:21;10.53;;;3.70;;
70052;SDS011;57398;52.032;4.376;2023-10-13T14:01:13;12.23;;;3.42;;
70052;SDS011;57398;52.032;4.376;2023-10-13T14:04:02;11.43;;;3.65;;
70052;SDS011;57398;52.032;4.376;2023-10-13T14:06:53;13.02;;;3.92;;
70052;SDS011;57398;52.032;4.376;2023-10-13T14:09:41;12.30;;;3.30;;
70052;SDS011;57398;52.032;4.376;2023-10-13T14:12:30;8.80;;;2.60;;
70052;SDS011;57398;52.032;4.376;2023-10-13T14:15:28;10.10;;;2.55;;
70052;SDS011;57398;52.032;4.376;2023-10-13T14:18:17;7.00;;;1.80;;
70052;SDS011;57398;52.032;4.376;2023-10-13T14:21:06;7.30;;;2.00;;
70052;SDS011;57398;52.032;4.376;2023-10-13T14:23:54;8.05;;;1.50;;
70052;SDS011;57398;52.032;4.376;2023-10-13T14:26:42;7.97;;;1.87;;
70052;SDS011;57398;52.032;4.376;2023-10-13T14:29:30;8.68;;;1.58;;
70052;SDS011;57398;52.032;4.376;2023-10-13T14:32:19;7.57;;;1.48;;
70052;SDS011;57398;52.032;4.376;2023-10-13T14:35:13;11.02;;;1.48;;
70052;SDS011;57398;52.032;4.376;2023-10-13T14:38:02;9.68;;;1.70;;
70052;SDS011;57398;52.032;4.376;2023-10-13T14:40:55;8.37;;;2.17;;
70052;SDS011;57398;52.032;4.376;2023-10-13T14:43:45;12.82;;;2.85;;
70052;SDS011;57398;52.032;4.376;2023-10-13T14:46:35;6.68;;;1.92;;
70052;SDS011;57398;52.032;4.376;2023-10-13T14:49:25;9.93;;;2.58;;
70052;SDS011;57398;52.032;4.376;2023-10-13T14:52:15;11.45;;;2.83;;
70052;SDS011;57398;52.032;4.376;2023-10-13T14:55:04;11.40;;;2.73;;
70052;SDS011;57398;52.032;4.376;2023-10-13T14:57:54;12.57;;;3.17;;
70052;SDS011;57398;52.032;4.376;2023-10-13T15:00:42;10.90;;;2.92;;
70052;SDS011;57398;52.032;4.376;2023-10-13T15:03:32;9.68;;;3.03;;
70052;SDS011;57398;52.032;4.376;2023-10-13T15:06:25;12.07;;;3.28;;
70052;SDS011;57398;52.032;4.376;2023-10-13T15:09:16;10.43;;;3.73;;
70052;SDS011;57398;52.032;4.376;2023-10-13T15:12:10;9.63;;;3.58;;
70052;SDS011;57398;52.032;4.376;2023-10-13T15:15:03;11.77;;;3.15;;
70052;SDS011;57398;52.032;4.376;2023-10-13T15:17:52;13.05;;;3.72;;
70052;SDS011;57398;52.032;4.376;2023-10-13T15:20:41;12.35;;;3.50;;
70052;SDS011;57398;52.032;4.376;2023-10-13T15:23:30;13.43;;;3.80;;
70052;SDS011;57398;52.032;4.376;2023-10-13T15:26:22;12.75;;;3.65;;
70052;SDS011;57398;52.032;4.376;2023-10-13T15:29:10;11.63;;;4.13;;
70052;SDS011;57398;52.032;4.376;2023-10-13T15:31:59;15.68;;;3.80;;
70052;SDS011;57398;52.032;4.376;2023-10-13T15:35:13;15.45;;;4.13;;
70052;SDS011;57398;52.032;4.376;2023-10-13T15:38:01;12.53;;;3.53;;
70052;SDS011;57398;52.032;4.376;2023-10-13T15:40:49;16.23;;;3.97;;
70052;SDS011;57398;52.032;4.376;2023-10-13T15:43:45;14.02;;;4.07;;
70052;SDS011;57398;52.032;4.376;2023-10-13T15:46:36;14.05;;;3.65;;
70052;SDS011;57398;52.032;4.376;2023-10-13T15:49:44;17.83;;;4.10;;
70052;SDS011;57398;52.032;4.376;2023-10-13T15:52:32;15.97;;;4.10;;
70052;SDS011;57398;52.032;4.376;2023-10-13T15:55:20;13.35;;;3.47;;
70052;SDS011;57398;52.032;4.376;2023-10-13T15:58:08;10.73;;;4.03;;
70052;SDS011;57398;52.032;4.376;2023-10-13T16:00:59;14.40;;;4.35;;
70052;SDS011;57398;52.032;4.376;2023-10-13T16:03:47;12.95;;;3.95;;
70052;SDS011;57398;52.032;4.376;2023-10-13T16:06:37;9.93;;;4.17;;
70052;SDS011;57398;52.032;4.376;2023-10-13T16:09:25;15.88;;;4.30;;
70052;SDS011;57398;52.032;4.376;2023-10-13T16:12:14;14.95;;;4.40;;
70052;SDS011;57398;52.032;4.376;2023-10-13T16:15:04;11.98;;;3.83;;
70052;SDS011;57398;52.032;4.376;2023-10-13T16:17:56;11.80;;;3.97;;
70052;SDS011;57398;52.032;4.376;2023-10-13T16:20:44;12.30;;;3.90;;
70052;SDS011;57398;52.032;4.376;2023-10-13T16:23:34;8.98;;;3.78;;
70052;SDS011;57398;52.032;4.376;2023-10-13T16:26:22;13.35;;;4.25;;
70052;SDS011;57398;52.032;4.376;2023-10-13T16:29:12;16.02;;;4.43;;
70052;SDS011;57398;52.032;4.376;2023-10-13T16:32:00;12.20;;;3.67;;
70052;SDS011;57398;52.032;4.376;2023-10-13T16:34:51;15.17;;;3.70;;
70052;SDS011;57398;52.032;4.376;2023-10-13T16:37:39;12.18;;;4.00;;
70052;SDS011;57398;52.032;4.376;2023-10-13T16:40:27;13.70;;;3.75;;
70052;SDS011;57398;52.032;4.376;2023-10-13T16:43:15;16.65;;;3.88;;
70052;SDS011;57398;52.032;4.376;2023-10-13T16:46:02;10.57;;;3.80;;
70052;SDS011;57398;52.032;4.376;2023-10-13T16:48:53;13.37;;;3.27;;
70052;SDS011;57398;52.032;4.376;2023-10-13T16:51:42;11.88;;;3.85;;
70052;SDS011;57398;52.032;4.376;2023-10-13T16:54:31;13.20;;;3.70;;
70052;SDS011;57398;52.032;4.376;2023-10-13T16:57:19;12.32;;;3.75;;
70052;SDS011;57398;52.032;4.376;2023-10-13T17:00:07;13.05;;;3.95;;
70052;SDS011;57398;52.032;4.376;2023-10-13T17:02:58;8.17;;;3.27;;
70052;SDS011;57398;52.032;4.376;2023-10-13T17:05:46;8.80;;;3.30;;
70052;SDS011;57398;52.032;4.376;2023-10-13T17:08:37;8.95;;;3.28;;
70052;SDS011;57398;52.032;4.376;2023-10-13T17:11:25;11.10;;;3.03;;
70052;SDS011;57398;52.032;4.376;2023-10-13T17:14:14;10.52;;;3.28;;
70052;SDS011;57398;52.032;4.376;2023-10-13T17:17:03;10.80;;;3.30;;
70052;SDS011;57398;52.032;4.376;2023-10-13T17:19:51;11.18;;;2.83;;
70052;SDS011;57398;52.032;4.376;2023-10-13T17:22:40;11.90;;;3.10;;